sensor_id;sensor_type;location;lat;lon;timestamp;temperature;humidity
67358;HTU21D;54240;51.096;5.878;2022-08-02T00:01:46;17.56;118.99
67358;HTU21D;54240;51.096;5.878;2022-08-02T00:04:12;17.55;118.99
67358;HTU21D;54240;51.096;5.878;2022-08-02T00:06:38;17.53;118.99
67358;HTU21D;54240;51.096;5.878;2022-08-02T00:09:05;17.51;118.99
67358;HTU21D;54240;51.096;5.878;2022-08-02T00:11:30;17.48;118.99
67358;HTU21D;54240;51.096;5.878;2022-08-02T00:13:56;17.46;118.99
67358;HTU21D;54240;51.096;5.878;2022-08-02T00:16:22;17.47;118.99
67358;HTU21D;54240;51.096;5.878;2022-08-02T00:18:48;17.47;118.99
67358;HTU21D;54240;51.096;5.878;2022-08-02T00:21:14;17.45;118.99
67358;HTU21D;54240;51.096;5.878;2022-08-02T00:23:40;17.39;118.99
67358;HTU21D;54240;51.096;5.878;2022-08-02T00:26:06;17.35;118.99
67358;HTU21D;54240;51.096;5.878;2022-08-02T00:28:32;17.25;118.99
67358;HTU21D;54240;51.096;5.878;2022-08-02T00:30:58;17.21;118.99
67358;HTU21D;54240;51.096;5.878;2022-08-02T00:33:25;17.17;118.99
67358;HTU21D;54240;51.096;5.878;2022-08-02T00:35:51;17.19;118.99
67358;HTU21D;54240;51.096;5.878;2022-08-02T00:38:17;17.20;118.99
67358;HTU21D;54240;51.096;5.878;2022-08-02T00:40:47;17.23;118.99
67358;HTU21D;54240;51.096;5.878;2022-08-02T00:43:14;17.26;118.99
67358;HTU21D;54240;51.096;5.878;2022-08-02T00:45:41;17.29;118.99
67358;HTU21D;54240;51.096;5.878;2022-08-02T00:48:10;17.28;118.99
67358;HTU21D;54240;51.096;5.878;2022-08-02T00:50:37;17.29;118.99
67358;HTU21D;54240;51.096;5.878;2022-08-02T00:53:05;17.22;118.99
67358;HTU21D;54240;51.096;5.878;2022-08-02T00:55:31;17.19;118.99
67358;HTU21D;54240;51.096;5.878;2022-08-02T00:57:57;17.18;118.99
67358;HTU21D;54240;51.096;5.878;2022-08-02T01:00:23;17.21;118.99
67358;HTU21D;54240;51.096;5.878;2022-08-02T01:02:49;17.24;118.99
67358;HTU21D;54240;51.096;5.878;2022-08-02T01:05:16;17.24;118.99
67358;HTU21D;54240;51.096;5.878;2022-08-02T01:07:42;17.25;118.99
67358;HTU21D;54240;51.096;5.878;2022-08-02T01:10:09;17.23;118.99
67358;HTU21D;54240;51.096;5.878;2022-08-02T01:12:35;17.23;118.99
67358;HTU21D;54240;51.096;5.878;2022-08-02T01:15:09;17.21;118.99
67358;HTU21D;54240;51.096;5.878;2022-08-02T01:17:45;17.21;118.99
67358;HTU21D;54240;51.096;5.878;2022-08-02T01:31:27;17.18;118.99
67358;HTU21D;54240;51.096;5.878;2022-08-02T01:34:04;17.18;118.99
67358;HTU21D;54240;51.096;5.878;2022-08-02T01:36:47;17.19;118.99
67358;HTU21D;54240;51.096;5.878;2022-08-02T01:39:20;17.18;118.99
67358;HTU21D;54240;51.096;5.878;2022-08-02T01:41:49;17.15;118.99
67358;HTU21D;54240;51.096;5.878;2022-08-02T01:44:18;17.11;118.99
67358;HTU21D;54240;51.096;5.878;2022-08-02T01:46:47;17.09;118.99
67358;HTU21D;54240;51.096;5.878;2022-08-02T01:49:18;17.07;118.99
67358;HTU21D;54240;51.096;5.878;2022-08-02T01:51:48;17.04;118.99
67358;HTU21D;54240;51.096;5.878;2022-08-02T01:54:35;17.03;118.99
67358;HTU21D;54240;51.096;5.878;2022-08-02T01:57:05;17.01;118.99
67358;HTU21D;54240;51.096;5.878;2022-08-02T01:59:35;17.00;118.99
67358;HTU21D;54240;51.096;5.878;2022-08-02T02:02:07;16.98;118.99
67358;HTU21D;54240;51.096;5.878;2022-08-02T02:04:34;16.95;118.99
67358;HTU21D;54240;51.096;5.878;2022-08-02T02:07:02;16.93;118.99
67358;HTU21D;54240;51.096;5.878;2022-08-02T02:09:30;16.89;118.99
67358;HTU21D;54240;51.096;5.878;2022-08-02T02:11:59;16.87;118.99
67358;HTU21D;54240;51.096;5.878;2022-08-02T02:14:27;16.84;118.99
67358;HTU21D;54240;51.096;5.878;2022-08-02T02:16:57;16.82;118.99
67358;HTU21D;54240;51.096;5.878;2022-08-02T02:19:26;16.80;118.99
67358;HTU21D;54240;51.096;5.878;2022-08-02T02:21:53;16.76;118.99
67358;HTU21D;54240;51.096;5.878;2022-08-02T02:24:19;16.72;118.99
67358;HTU21D;54240;51.096;5.878;2022-08-02T02:26:47;16.67;118.99
67358;HTU21D;54240;51.096;5.878;2022-08-02T02:29:14;16.62;118.99
67358;HTU21D;54240;51.096;5.878;2022-08-02T02:31:43;16.61;118.99
67358;HTU21D;54240;51.096;5.878;2022-08-02T02:34:19;16.58;118.99
67358;HTU21D;54240;51.096;5.878;2022-08-02T02:36:49;16.56;118.99
67358;HTU21D;54240;51.096;5.878;2022-08-02T02:39:21;16.52;118.99
67358;HTU21D;54240;51.096;5.878;2022-08-02T02:41:49;16.50;118.99
67358;HTU21D;54240;51.096;5.878;2022-08-02T02:44:19;16.48;118.99
67358;HTU21D;54240;51.096;5.878;2022-08-02T02:46:49;16.45;118.99
67358;HTU21D;54240;51.096;5.878;2022-08-02T02:49:18;16.42;118.99
67358;HTU21D;54240;51.096;5.878;2022-08-02T02:51:45;16.39;118.99
67358;HTU21D;54240;51.096;5.878;2022-08-02T02:54:14;16.33;118.99
67358;HTU21D;54240;51.096;5.878;2022-08-02T02:56:43;16.25;118.99
67358;HTU21D;54240;51.096;5.878;2022-08-02T02:59:12;16.17;118.99
67358;HTU21D;54240;51.096;5.878;2022-08-02T03:01:39;16.12;118.99
67358;HTU21D;54240;51.096;5.878;2022-08-02T03:04:08;16.06;118.99
67358;HTU21D;54240;51.096;5.878;2022-08-02T03:06:36;16.04;118.99
67358;HTU21D;54240;51.096;5.878;2022-08-02T03:09:04;16.04;118.99
67358;HTU21D;54240;51.096;5.878;2022-08-02T03:11:30;16.00;118.99
67358;HTU21D;54240;51.096;5.878;2022-08-02T03:14:02;15.96;118.99
67358;HTU21D;54240;51.096;5.878;2022-08-02T03:16:28;15.93;118.99
67358;HTU21D;54240;51.096;5.878;2022-08-02T03:18:56;15.87;118.99
67358;HTU21D;54240;51.096;5.878;2022-08-02T03:21:23;15.84;118.99
67358;HTU21D;54240;51.096;5.878;2022-08-02T03:23:49;15.82;118.99
67358;HTU21D;54240;51.096;5.878;2022-08-02T03:26:16;15.82;118.99
67358;HTU21D;54240;51.096;5.878;2022-08-02T03:28:42;15.83;118.99
67358;HTU21D;54240;51.096;5.878;2022-08-02T03:31:10;15.83;118.99
67358;HTU21D;54240;51.096;5.878;2022-08-02T03:33:38;15.85;118.99
67358;HTU21D;54240;51.096;5.878;2022-08-02T03:36:09;15.86;118.99
67358;HTU21D;54240;51.096;5.878;2022-08-02T03:38:36;15.86;118.99
67358;HTU21D;54240;51.096;5.878;2022-08-02T03:41:05;15.84;118.99
67358;HTU21D;54240;51.096;5.878;2022-08-02T03:43:32;15.82;118.99
67358;HTU21D;54240;51.096;5.878;2022-08-02T03:46:00;15.80;118.99
67358;HTU21D;54240;51.096;5.878;2022-08-02T03:48:28;15.78;118.99
67358;HTU21D;54240;51.096;5.878;2022-08-02T03:50:56;15.75;118.99
67358;HTU21D;54240;51.096;5.878;2022-08-02T03:53:24;15.74;118.99
67358;HTU21D;54240;51.096;5.878;2022-08-02T03:55:50;15.71;118.99
67358;HTU21D;54240;51.096;5.878;2022-08-02T03:58:21;15.71;118.99
67358;HTU21D;54240;51.096;5.878;2022-08-02T04:00:47;15.69;118.99
67358;HTU21D;54240;51.096;5.878;2022-08-02T04:03:14;15.69;118.99
67358;HTU21D;54240;51.096;5.878;2022-08-02T04:05:40;15.68;118.99
67358;HTU21D;54240;51.096;5.878;2022-08-02T04:08:06;15.69;118.99
67358;HTU21D;54240;51.096;5.878;2022-08-02T04:10:33;15.63;118.99
67358;HTU21D;54240;51.096;5.878;2022-08-02T04:13:19;15.55;118.99
67358;HTU21D;54240;51.096;5.878;2022-08-02T04:15:49;15.44;118.99
67358;HTU21D;54240;51.096;5.878;2022-08-02T04:18:21;15.39;118.99
67358;HTU21D;54240;51.096;5.878;2022-08-02T04:20:52;15.37;118.99
67358;HTU21D;54240;51.096;5.878;2022-08-02T04:23:22;15.34;118.99
67358;HTU21D;54240;51.096;5.878;2022-08-02T04:25:50;15.34;118.99
67358;HTU21D;54240;51.096;5.878;2022-08-02T04:28:17;15.38;118.99
67358;HTU21D;54240;51.096;5.878;2022-08-02T04:30:46;15.42;118.99
67358;HTU21D;54240;51.096;5.878;2022-08-02T04:33:13;15.47;118.99
67358;HTU21D;54240;51.096;5.878;2022-08-02T04:35:39;15.57;118.99
67358;HTU21D;54240;51.096;5.878;2022-08-02T04:38:05;15.68;118.99
67358;HTU21D;54240;51.096;5.878;2022-08-02T04:40:32;15.77;118.99
67358;HTU21D;54240;51.096;5.878;2022-08-02T04:42:57;15.86;118.99
67358;HTU21D;54240;51.096;5.878;2022-08-02T04:45:26;15.91;118.99
67358;HTU21D;54240;51.096;5.878;2022-08-02T04:47:54;15.93;118.99
67358;HTU21D;54240;51.096;5.878;2022-08-02T04:50:19;15.91;118.99
67358;HTU21D;54240;51.096;5.878;2022-08-02T04:52:46;15.91;118.99
67358;HTU21D;54240;51.096;5.878;2022-08-02T04:55:12;15.95;118.99
67358;HTU21D;54240;51.096;5.878;2022-08-02T04:57:38;16.00;118.99
67358;HTU21D;54240;51.096;5.878;2022-08-02T05:00:19;16.04;118.99
67358;HTU21D;54240;51.096;5.878;2022-08-02T05:02:46;16.11;118.99
67358;HTU21D;54240;51.096;5.878;2022-08-02T05:05:13;16.16;118.99
67358;HTU21D;54240;51.096;5.878;2022-08-02T05:07:39;16.24;118.99
67358;HTU21D;54240;51.096;5.878;2022-08-02T05:10:05;16.33;118.99
67358;HTU21D;54240;51.096;5.878;2022-08-02T05:12:31;16.37;118.99
67358;HTU21D;54240;51.096;5.878;2022-08-02T05:14:57;16.39;118.99
67358;HTU21D;54240;51.096;5.878;2022-08-02T05:17:23;16.39;118.99
67358;HTU21D;54240;51.096;5.878;2022-08-02T05:19:49;16.45;118.99
67358;HTU21D;54240;51.096;5.878;2022-08-02T05:22:15;16.51;118.99
67358;HTU21D;54240;51.096;5.878;2022-08-02T05:24:40;16.58;118.99
67358;HTU21D;54240;51.096;5.878;2022-08-02T05:27:06;16.64;118.99
67358;HTU21D;54240;51.096;5.878;2022-08-02T05:29:32;16.73;118.99
67358;HTU21D;54240;51.096;5.878;2022-08-02T05:31:58;16.80;118.99
67358;HTU21D;54240;51.096;5.878;2022-08-02T05:34:24;16.84;118.99
67358;HTU21D;54240;51.096;5.878;2022-08-02T05:36:49;16.93;118.99
67358;HTU21D;54240;51.096;5.878;2022-08-02T05:39:15;17.02;118.99
67358;HTU21D;54240;51.096;5.878;2022-08-02T05:41:41;17.10;118.99
67358;HTU21D;54240;51.096;5.878;2022-08-02T05:44:07;17.18;118.99
67358;HTU21D;54240;51.096;5.878;2022-08-02T05:46:33;17.28;118.99
67358;HTU21D;54240;51.096;5.878;2022-08-02T05:48:59;17.35;118.99
67358;HTU21D;54240;51.096;5.878;2022-08-02T05:51:37;17.47;118.99
67358;HTU21D;54240;51.096;5.878;2022-08-02T05:56:50;17.70;118.99
67358;HTU21D;54240;51.096;5.878;2022-08-02T05:59:32;17.82;118.99
67358;HTU21D;54240;51.096;5.878;2022-08-02T06:02:02;17.94;118.99
67358;HTU21D;54240;51.096;5.878;2022-08-02T06:04:44;17.94;118.99
67358;HTU21D;54240;51.096;5.878;2022-08-02T06:07:13;18.12;118.99
67358;HTU21D;54240;51.096;5.878;2022-08-02T06:09:42;18.24;118.99
67358;HTU21D;54240;51.096;5.878;2022-08-02T06:12:12;18.37;118.99
67358;HTU21D;54240;51.096;5.878;2022-08-02T06:14:40;18.50;118.99
67358;HTU21D;54240;51.096;5.878;2022-08-02T06:17:07;18.64;118.99
67358;HTU21D;54240;51.096;5.878;2022-08-02T06:19:36;18.76;118.99
67358;HTU21D;54240;51.096;5.878;2022-08-02T06:22:03;18.89;118.99
67358;HTU21D;54240;51.096;5.878;2022-08-02T06:24:43;19.03;118.99
67358;HTU21D;54240;51.096;5.878;2022-08-02T06:27:14;19.23;118.99
67358;HTU21D;54240;51.096;5.878;2022-08-02T06:29:42;19.35;118.99
67358;HTU21D;54240;51.096;5.878;2022-08-02T06:32:09;19.50;118.99
67358;HTU21D;54240;51.096;5.878;2022-08-02T06:34:36;19.67;118.99
67358;HTU21D;54240;51.096;5.878;2022-08-02T06:37:13;19.86;118.99
67358;HTU21D;54240;51.096;5.878;2022-08-02T06:39:46;20.03;118.99
67358;HTU21D;54240;51.096;5.878;2022-08-02T06:42:18;20.26;118.99
67358;HTU21D;54240;51.096;5.878;2022-08-02T06:44:53;20.48;118.99
67358;HTU21D;54240;51.096;5.878;2022-08-02T06:47:19;20.70;118.99
67358;HTU21D;54240;51.096;5.878;2022-08-02T06:49:45;20.95;118.99
67358;HTU21D;54240;51.096;5.878;2022-08-02T06:52:11;21.19;118.99
67358;HTU21D;54240;51.096;5.878;2022-08-02T06:54:37;21.35;118.99
67358;HTU21D;54240;51.096;5.878;2022-08-02T06:57:07;21.57;118.99
67358;HTU21D;54240;51.096;5.878;2022-08-02T06:59:34;21.78;118.99
67358;HTU21D;54240;51.096;5.878;2022-08-02T07:01:59;21.95;118.99
67358;HTU21D;54240;51.096;5.878;2022-08-02T07:04:28;22.14;118.99
67358;HTU21D;54240;51.096;5.878;2022-08-02T07:06:54;22.43;118.99
67358;HTU21D;54240;51.096;5.878;2022-08-02T07:09:21;22.66;118.99
67358;HTU21D;54240;51.096;5.878;2022-08-02T07:11:47;22.73;118.99
67358;HTU21D;54240;51.096;5.878;2022-08-02T07:14:13;22.72;118.99
67358;HTU21D;54240;51.096;5.878;2022-08-02T07:16:39;22.79;118.99
67358;HTU21D;54240;51.096;5.878;2022-08-02T07:19:05;22.85;118.99
67358;HTU21D;54240;51.096;5.878;2022-08-02T07:21:31;22.80;118.99
67358;HTU21D;54240;51.096;5.878;2022-08-02T07:23:56;23.05;118.99
67358;HTU21D;54240;51.096;5.878;2022-08-02T07:26:22;23.06;118.99
67358;HTU21D;54240;51.096;5.878;2022-08-02T07:28:48;23.21;118.99
67358;HTU21D;54240;51.096;5.878;2022-08-02T07:31:14;23.43;118.99
67358;HTU21D;54240;51.096;5.878;2022-08-02T07:33:40;23.40;118.99
67358;HTU21D;54240;51.096;5.878;2022-08-02T07:36:07;23.45;118.99
67358;HTU21D;54240;51.096;5.878;2022-08-02T07:38:33;23.43;118.99
67358;HTU21D;54240;51.096;5.878;2022-08-02T07:40:59;23.53;118.99
67358;HTU21D;54240;51.096;5.878;2022-08-02T07:43:25;23.70;118.99
67358;HTU21D;54240;51.096;5.878;2022-08-02T07:45:51;23.75;118.99
67358;HTU21D;54240;51.096;5.878;2022-08-02T07:48:17;23.81;118.99
67358;HTU21D;54240;51.096;5.878;2022-08-02T07:50:43;23.88;118.99
67358;HTU21D;54240;51.096;5.878;2022-08-02T07:53:08;24.05;118.99
67358;HTU21D;54240;51.096;5.878;2022-08-02T07:55:34;24.17;118.99
67358;HTU21D;54240;51.096;5.878;2022-08-02T07:58:00;24.21;118.99
67358;HTU21D;54240;51.096;5.878;2022-08-02T08:00:26;24.09;118.99
67358;HTU21D;54240;51.096;5.878;2022-08-02T08:02:52;24.32;118.99
67358;HTU21D;54240;51.096;5.878;2022-08-02T08:05:18;24.39;118.99
67358;HTU21D;54240;51.096;5.878;2022-08-02T08:07:45;24.57;118.99
67358;HTU21D;54240;51.096;5.878;2022-08-02T08:10:10;25.08;118.99
67358;HTU21D;54240;51.096;5.878;2022-08-02T08:12:37;25.37;118.99
67358;HTU21D;54240;51.096;5.878;2022-08-02T08:15:03;25.47;115.51
67358;HTU21D;54240;51.096;5.878;2022-08-02T08:17:29;25.65;118.99
67358;HTU21D;54240;51.096;5.878;2022-08-02T08:19:55;26.13;84.35
67358;HTU21D;54240;51.096;5.878;2022-08-02T08:22:23;26.41;74.47
67358;HTU21D;54240;51.096;5.878;2022-08-02T08:24:49;26.65;17.55
67358;HTU21D;54240;51.096;5.878;2022-08-02T08:27:17;26.72;29.74
67358;HTU21D;54240;51.096;5.878;2022-08-02T08:29:43;26.80;-6.00
67358;HTU21D;54240;51.096;5.878;2022-08-02T08:32:10;26.90;-6.00
67358;HTU21D;54240;51.096;5.878;2022-08-02T08:34:36;27.21;-6.00
67358;HTU21D;54240;51.096;5.878;2022-08-02T08:37:02;27.37;-6.00
67358;HTU21D;54240;51.096;5.878;2022-08-02T08:39:29;27.64;-6.00
67358;HTU21D;54240;51.096;5.878;2022-08-02T08:41:55;28.04;-6.00
67358;HTU21D;54240;51.096;5.878;2022-08-02T08:44:21;28.18;-6.00
67358;HTU21D;54240;51.096;5.878;2022-08-02T08:46:49;27.99;-6.00
67358;HTU21D;54240;51.096;5.878;2022-08-02T08:51:54;27.91;-6.00
67358;HTU21D;54240;51.096;5.878;2022-08-02T08:54:23;28.13;-6.00
67358;HTU21D;54240;51.096;5.878;2022-08-02T08:56:52;28.44;-6.00
67358;HTU21D;54240;51.096;5.878;2022-08-02T08:59:19;28.79;-6.00
67358;HTU21D;54240;51.096;5.878;2022-08-02T09:01:46;28.47;-6.00
67358;HTU21D;54240;51.096;5.878;2022-08-02T09:04:12;28.38;-6.00
67358;HTU21D;54240;51.096;5.878;2022-08-02T09:06:39;28.69;-6.00
67358;HTU21D;54240;51.096;5.878;2022-08-02T09:09:05;28.93;-6.00
67358;HTU21D;54240;51.096;5.878;2022-08-02T09:11:31;29.36;-6.00
67358;HTU21D;54240;51.096;5.878;2022-08-02T09:13:59;29.62;-6.00
67358;HTU21D;54240;51.096;5.878;2022-08-02T09:16:37;29.61;-6.00
67358;HTU21D;54240;51.096;5.878;2022-08-02T09:19:19;29.22;-6.00
67358;HTU21D;54240;51.096;5.878;2022-08-02T09:21:47;29.46;-6.00
67358;HTU21D;54240;51.096;5.878;2022-08-02T09:24:15;29.22;-6.00
67358;HTU21D;54240;51.096;5.878;2022-08-02T09:26:42;29.47;-6.00
67358;HTU21D;54240;51.096;5.878;2022-08-02T09:29:09;29.91;-6.00
67358;HTU21D;54240;51.096;5.878;2022-08-02T09:31:35;29.79;-6.00
67358;HTU21D;54240;51.096;5.878;2022-08-02T09:34:01;30.01;-6.00
67358;HTU21D;54240;51.096;5.878;2022-08-02T09:36:37;29.68;-6.00
67358;HTU21D;54240;51.096;5.878;2022-08-02T09:39:05;29.38;-6.00
67358;HTU21D;54240;51.096;5.878;2022-08-02T09:41:35;29.33;-6.00
67358;HTU21D;54240;51.096;5.878;2022-08-02T09:44:04;29.32;-6.00
67358;HTU21D;54240;51.096;5.878;2022-08-02T09:46:33;28.69;-6.00
67358;HTU21D;54240;51.096;5.878;2022-08-02T09:49:10;28.04;-6.00
67358;HTU21D;54240;51.096;5.878;2022-08-02T09:51:52;27.44;-6.00
67358;HTU21D;54240;51.096;5.878;2022-08-02T09:54:28;27.42;-6.00
67358;HTU21D;54240;51.096;5.878;2022-08-02T09:56:57;27.96;-6.00
67358;HTU21D;54240;51.096;5.878;2022-08-02T09:59:24;28.26;-6.00
67358;HTU21D;54240;51.096;5.878;2022-08-02T10:01:52;28.40;-6.00
67358;HTU21D;54240;51.096;5.878;2022-08-02T10:04:20;29.11;-6.00
67358;HTU21D;54240;51.096;5.878;2022-08-02T10:06:48;29.32;-6.00
67358;HTU21D;54240;51.096;5.878;2022-08-02T10:09:16;29.85;-6.00
67358;HTU21D;54240;51.096;5.878;2022-08-02T10:11:42;30.07;-6.00
67358;HTU21D;54240;51.096;5.878;2022-08-02T10:14:09;30.06;-6.00
67358;HTU21D;54240;51.096;5.878;2022-08-02T10:16:41;30.19;-6.00
67358;HTU21D;54240;51.096;5.878;2022-08-02T10:19:07;30.36;-6.00
67358;HTU21D;54240;51.096;5.878;2022-08-02T10:21:48;30.38;-6.00
67358;HTU21D;54240;51.096;5.878;2022-08-02T10:24:17;31.15;-6.00
67358;HTU21D;54240;51.096;5.878;2022-08-02T10:26:46;31.24;-6.00
67358;HTU21D;54240;51.096;5.878;2022-08-02T10:29:19;31.27;-6.00
67358;HTU21D;54240;51.096;5.878;2022-08-02T10:32:01;30.99;-6.00
67358;HTU21D;54240;51.096;5.878;2022-08-02T10:34:54;31.41;-6.00
67358;HTU21D;54240;51.096;5.878;2022-08-02T10:37:28;31.83;-6.00
67358;HTU21D;54240;51.096;5.878;2022-08-02T10:39:56;31.97;-6.00
67358;HTU21D;54240;51.096;5.878;2022-08-02T10:42:47;31.86;-6.00
67358;HTU21D;54240;51.096;5.878;2022-08-02T10:45:19;31.31;-6.00
67358;HTU21D;54240;51.096;5.878;2022-08-02T10:50:51;30.68;-6.00
67358;HTU21D;54240;51.096;5.878;2022-08-02T10:55:49;30.46;-6.00
67358;HTU21D;54240;51.096;5.878;2022-08-02T10:58:19;30.12;-6.00
67358;HTU21D;54240;51.096;5.878;2022-08-02T11:00:47;30.76;-6.00
67358;HTU21D;54240;51.096;5.878;2022-08-02T11:06:09;30.46;-6.00
67358;HTU21D;54240;51.096;5.878;2022-08-02T11:08:36;30.60;-6.00
67358;HTU21D;54240;51.096;5.878;2022-08-02T11:19:26;30.53;-6.00
67358;HTU21D;54240;51.096;5.878;2022-08-02T11:22:04;30.77;-6.00
67358;HTU21D;54240;51.096;5.878;2022-08-02T11:24:32;30.94;-6.00
67358;HTU21D;54240;51.096;5.878;2022-08-02T11:27:01;30.80;-6.00
67358;HTU21D;54240;51.096;5.878;2022-08-02T11:31:57;30.81;-6.00
67358;HTU21D;54240;51.096;5.878;2022-08-02T11:34:25;30.82;-6.00
67358;HTU21D;54240;51.096;5.878;2022-08-02T11:36:51;30.36;-6.00
67358;HTU21D;54240;51.096;5.878;2022-08-02T11:39:20;29.94;-6.00
67358;HTU21D;54240;51.096;5.878;2022-08-02T11:41:58;30.08;-6.00
67358;HTU21D;54240;51.096;5.878;2022-08-02T11:44:26;30.49;-6.00
67358;HTU21D;54240;51.096;5.878;2022-08-02T11:46:53;31.07;-6.00
67358;HTU21D;54240;51.096;5.878;2022-08-02T11:49:19;31.64;-6.00
67358;HTU21D;54240;51.096;5.878;2022-08-02T11:51:59;31.72;-6.00
67358;HTU21D;54240;51.096;5.878;2022-08-02T11:54:32;31.88;-6.00
67358;HTU21D;54240;51.096;5.878;2022-08-02T11:57:20;31.75;-6.00
67358;HTU21D;54240;51.096;5.878;2022-08-02T11:59:49;123.37;-6.00
67358;HTU21D;54240;51.096;5.878;2022-08-02T12:02:17;31.22;-6.00
67358;HTU21D;54240;51.096;5.878;2022-08-02T12:05:00;30.95;-6.00
67358;HTU21D;54240;51.096;5.878;2022-08-02T12:07:29;30.35;-6.00
67358;HTU21D;54240;51.096;5.878;2022-08-02T12:10:22;30.34;-6.00
67358;HTU21D;54240;51.096;5.878;2022-08-02T12:12:57;30.62;-6.00
67358;HTU21D;54240;51.096;5.878;2022-08-02T12:15:37;30.46;-6.00
67358;HTU21D;54240;51.096;5.878;2022-08-02T12:18:11;30.13;-6.00
67358;HTU21D;54240;51.096;5.878;2022-08-02T12:20:56;29.93;-6.00
67358;HTU21D;54240;51.096;5.878;2022-08-02T12:23:23;29.79;-6.00
67358;HTU21D;54240;51.096;5.878;2022-08-02T12:26:06;29.64;-6.00
67358;HTU21D;54240;51.096;5.878;2022-08-02T12:28:36;29.76;-6.00
67358;HTU21D;54240;51.096;5.878;2022-08-02T12:31:08;29.70;-6.00
67358;HTU21D;54240;51.096;5.878;2022-08-02T12:33:46;30.12;-6.00
67358;HTU21D;54240;51.096;5.878;2022-08-02T12:36:17;30.76;-6.00
67358;HTU21D;54240;51.096;5.878;2022-08-02T12:38:57;31.05;-6.00
67358;HTU21D;54240;51.096;5.878;2022-08-02T12:41:24;30.70;-6.00
67358;HTU21D;54240;51.096;5.878;2022-08-02T12:43:51;30.84;-6.00
67358;HTU21D;54240;51.096;5.878;2022-08-02T12:46:19;30.75;-6.00
67358;HTU21D;54240;51.096;5.878;2022-08-02T12:48:46;30.95;-6.00
67358;HTU21D;54240;51.096;5.878;2022-08-02T12:51:26;31.16;-6.00
67358;HTU21D;54240;51.096;5.878;2022-08-02T12:54:05;31.40;-6.00
67358;HTU21D;54240;51.096;5.878;2022-08-02T12:56:38;31.50;-6.00
67358;HTU21D;54240;51.096;5.878;2022-08-02T12:59:05;31.45;-6.00
67358;HTU21D;54240;51.096;5.878;2022-08-02T13:01:31;31.12;-6.00
67358;HTU21D;54240;51.096;5.878;2022-08-02T13:03:57;31.48;-6.00
67358;HTU21D;54240;51.096;5.878;2022-08-02T13:06:24;31.85;-6.00
67358;HTU21D;54240;51.096;5.878;2022-08-02T13:08:51;32.00;-6.00
67358;HTU21D;54240;51.096;5.878;2022-08-02T13:11:20;31.55;-6.00
67358;HTU21D;54240;51.096;5.878;2022-08-02T13:13:46;31.57;-6.00
67358;HTU21D;54240;51.096;5.878;2022-08-02T13:16:12;31.72;-6.00
67358;HTU21D;54240;51.096;5.878;2022-08-02T13:18:38;31.39;-6.00
67358;HTU21D;54240;51.096;5.878;2022-08-02T13:21:05;31.61;-6.00
67358;HTU21D;54240;51.096;5.878;2022-08-02T13:23:33;31.76;-6.00
67358;HTU21D;54240;51.096;5.878;2022-08-02T13:26:00;31.76;-6.00
67358;HTU21D;54240;51.096;5.878;2022-08-02T13:28:26;32.05;-6.00
67358;HTU21D;54240;51.096;5.878;2022-08-02T13:30:52;32.15;-6.00
67358;HTU21D;54240;51.096;5.878;2022-08-02T13:33:18;32.27;-6.00
67358;HTU21D;54240;51.096;5.878;2022-08-02T13:38:30;31.92;-6.00
67358;HTU21D;54240;51.096;5.878;2022-08-02T13:40:56;31.96;-6.00
67358;HTU21D;54240;51.096;5.878;2022-08-02T13:43:39;31.98;-6.00
67358;HTU21D;54240;51.096;5.878;2022-08-02T13:46:05;31.80;-6.00
67358;HTU21D;54240;51.096;5.878;2022-08-02T13:48:31;32.07;-6.00
67358;HTU21D;54240;51.096;5.878;2022-08-02T13:50:57;32.12;-6.00
67358;HTU21D;54240;51.096;5.878;2022-08-02T13:53:23;32.08;-6.00
67358;HTU21D;54240;51.096;5.878;2022-08-02T13:55:49;31.88;-6.00
67358;HTU21D;54240;51.096;5.878;2022-08-02T13:58:21;32.19;-6.00
67358;HTU21D;54240;51.096;5.878;2022-08-02T14:00:46;32.02;-6.00
67358;HTU21D;54240;51.096;5.878;2022-08-02T14:03:12;31.98;-6.00
67358;HTU21D;54240;51.096;5.878;2022-08-02T14:05:40;31.93;-6.00
67358;HTU21D;54240;51.096;5.878;2022-08-02T14:08:07;32.09;-6.00
67358;HTU21D;54240;51.096;5.878;2022-08-02T14:10:34;32.04;-6.00
67358;HTU21D;54240;51.096;5.878;2022-08-02T14:13:00;32.10;-6.00
67358;HTU21D;54240;51.096;5.878;2022-08-02T14:15:26;32.23;-6.00
67358;HTU21D;54240;51.096;5.878;2022-08-02T14:17:52;32.02;-6.00
67358;HTU21D;54240;51.096;5.878;2022-08-02T14:20:19;32.10;-6.00
67358;HTU21D;54240;51.096;5.878;2022-08-02T14:22:45;31.80;-6.00
67358;HTU21D;54240;51.096;5.878;2022-08-02T14:25:11;31.80;-6.00
67358;HTU21D;54240;51.096;5.878;2022-08-02T14:27:37;32.02;-6.00
67358;HTU21D;54240;51.096;5.878;2022-08-02T14:30:03;32.04;-6.00
67358;HTU21D;54240;51.096;5.878;2022-08-02T14:32:31;32.37;-6.00
67358;HTU21D;54240;51.096;5.878;2022-08-02T14:34:57;32.30;-6.00
67358;HTU21D;54240;51.096;5.878;2022-08-02T14:37:23;32.20;-6.00
67358;HTU21D;54240;51.096;5.878;2022-08-02T14:39:49;32.34;-6.00
67358;HTU21D;54240;51.096;5.878;2022-08-02T14:42:15;32.67;-6.00
67358;HTU21D;54240;51.096;5.878;2022-08-02T14:44:41;32.97;-6.00
67358;HTU21D;54240;51.096;5.878;2022-08-02T14:47:06;32.55;-6.00
67358;HTU21D;54240;51.096;5.878;2022-08-02T14:49:37;32.26;-6.00
67358;HTU21D;54240;51.096;5.878;2022-08-02T14:52:06;32.15;-6.00
67358;HTU21D;54240;51.096;5.878;2022-08-02T14:54:41;32.17;-6.00
67358;HTU21D;54240;51.096;5.878;2022-08-02T14:57:08;32.42;-6.00
67358;HTU21D;54240;51.096;5.878;2022-08-02T14:59:34;31.76;-6.00
67358;HTU21D;54240;51.096;5.878;2022-08-02T15:02:01;31.92;-6.00
67358;HTU21D;54240;51.096;5.878;2022-08-02T15:04:30;32.01;-6.00
67358;HTU21D;54240;51.096;5.878;2022-08-02T15:06:59;31.95;-6.00
67358;HTU21D;54240;51.096;5.878;2022-08-02T15:09:26;31.92;-6.00
67358;HTU21D;54240;51.096;5.878;2022-08-02T15:11:53;31.70;-6.00
67358;HTU21D;54240;51.096;5.878;2022-08-02T15:14:20;31.54;-6.00
67358;HTU21D;54240;51.096;5.878;2022-08-02T15:16:47;31.58;-6.00
67358;HTU21D;54240;51.096;5.878;2022-08-02T15:19:13;31.56;-6.00
67358;HTU21D;54240;51.096;5.878;2022-08-02T15:21:39;31.43;-6.00
67358;HTU21D;54240;51.096;5.878;2022-08-02T15:24:05;31.52;-6.00
67358;HTU21D;54240;51.096;5.878;2022-08-02T15:26:31;31.78;-6.00
67358;HTU21D;54240;51.096;5.878;2022-08-02T15:29:00;31.88;-6.00
67358;HTU21D;54240;51.096;5.878;2022-08-02T15:31:26;31.87;-6.00
67358;HTU21D;54240;51.096;5.878;2022-08-02T15:33:52;31.88;-6.00
67358;HTU21D;54240;51.096;5.878;2022-08-02T15:36:18;31.74;-6.00
67358;HTU21D;54240;51.096;5.878;2022-08-02T15:38:46;31.81;-6.00
67358;HTU21D;54240;51.096;5.878;2022-08-02T15:41:15;31.86;-6.00
67358;HTU21D;54240;51.096;5.878;2022-08-02T15:43:42;31.87;-6.00
67358;HTU21D;54240;51.096;5.878;2022-08-02T15:46:08;31.90;-6.00
67358;HTU21D;54240;51.096;5.878;2022-08-02T15:48:34;31.92;-6.00
67358;HTU21D;54240;51.096;5.878;2022-08-02T15:51:00;32.03;-6.00
67358;HTU21D;54240;51.096;5.878;2022-08-02T15:53:26;31.90;-6.00
67358;HTU21D;54240;51.096;5.878;2022-08-02T15:55:52;31.93;-6.00